Terminal Aerodrome Forecast
Issued by NWS

Home | Current Version | Previous Version | Text Only | Print | Product List | Glossary On
Versions: 1 2 3 4 5 6 7 8 9 10 11 12 13 14 15 16 17 18 19
000
FTUS41 KBGM 050658 AAA
TAFELM
TAF AMD
KELM 050658Z 0507/0606 17006KT 3SM -SN OVC012
      TEMPO 0507/0509 3/4SM -SN OVC007
     FM051100 18007KT 6SM -RASN OVC015
     FM051300 23007KT P6SM OVC025
     FM051600 28010KT P6SM BKN040
     FM060200 28004KT P6SM SCT040=

USA.gov is the U.S. government's official web portal to all federal, state and local government web resources and services.